createdAt,value
2022-09-18T00:01:53.807Z,99605.81
2022-09-18T00:07:32.585Z,99611.91
2022-09-18T00:10:00.320Z,99618.00
2022-09-18T00:12:28.124Z,99611.72
2022-09-18T00:14:55.847Z,99613.59
2022-09-18T00:17:23.582Z,99613.59
2022-09-18T00:19:51.401Z,99620.72
2022-09-18T00:22:20.213Z,99621.78
2022-09-18T00:24:47.958Z,99631.84
2022-09-18T00:27:15.730Z,99626.38
2022-09-18T00:29:44.801Z,99622.63
2022-09-18T00:32:12.543Z,99623.47
2022-09-18T00:34:41.543Z,99627.25
2022-09-18T00:37:09.284Z,99628.06
2022-09-18T00:39:37.168Z,99628.06
2022-09-18T00:42:05.102Z,99637.94
2022-09-18T00:44:32.815Z,99630.81
2022-09-18T00:47:00.903Z,99630.81
2022-09-18T00:49:28.748Z,99632.69
2022-09-18T00:51:56.495Z,99644.44
2022-09-18T00:54:24.444Z,99639.19
2022-09-18T00:56:52.156Z,99641.91
2022-09-18T00:59:20.205Z,99641.91
2022-09-18T01:01:47.951Z,99647.59
2022-09-18T01:04:15.905Z,99643.81
2022-09-18T01:06:43.658Z,99646.53
2022-09-18T01:09:11.426Z,99653.66
2022-09-18T01:11:39.322Z,99657.44
2022-09-18T01:14:07.188Z,99652.00
2022-09-18T01:16:35.176Z,99652.22
2022-09-18T01:19:03.428Z,99659.34
2022-09-18T01:21:31.242Z,99664.81
2022-09-18T01:23:58.945Z,99663.97
2022-09-18T01:26:26.685Z,99668.38
2022-09-18T01:28:54.745Z,99674.88
2022-09-18T01:31:22.558Z,99672.16
2022-09-18T01:33:50.408Z,99674.06
2022-09-18T01:36:18.203Z,99674.25
2022-09-18T01:38:45.922Z,99676.78
2022-09-18T01:41:13.720Z,99679.69
2022-09-18T01:43:41.421Z,99687.88
2022-09-18T01:46:09.198Z,99671.53
2022-09-18T01:48:36.949Z,99684.09
2022-09-18T01:51:05.871Z,99700.69
2022-09-18T01:53:33.853Z,99694.19
2022-09-18T01:56:01.583Z,99698.16
2022-09-18T01:58:29.310Z,99704.44
2022-09-18T02:00:56.999Z,99709.72
2022-09-18T02:03:25.188Z,99702.59
2022-09-18T02:05:52.923Z,99701.72
2022-09-18T02:08:20.665Z,99707.19
2022-09-18T02:10:48.509Z,99706.34
2022-09-18T02:13:16.237Z,99717.25
2022-09-18T02:15:44.215Z,99708.25
2022-09-18T02:18:12.011Z,99709.06
2022-09-18T02:20:39.759Z,99712.44
2022-09-18T02:23:07.624Z,99720.81
2022-09-18T02:25:35.382Z,99718.09
2022-09-18T02:28:03.415Z,99710.97
2022-09-18T02:30:31.090Z,99717.69
2022-09-18T02:32:58.835Z,99711.16
2022-09-18T02:35:26.595Z,99723.78
2022-09-18T02:37:54.343Z,99713.06
2022-09-18T02:40:22.252Z,99725.66
2022-09-18T02:42:50.052Z,99725.66
2022-09-18T02:45:17.786Z,99732.97
2022-09-18T02:47:45.670Z,99731.94
2022-09-18T02:50:13.461Z,99730.91
2022-09-18T02:52:41.197Z,99737.41
2022-09-18T02:55:08.863Z,99734.69
2022-09-18T02:57:36.533Z,99730.25
2022-09-18T03:00:04.334Z,99741.16
2022-09-18T03:02:32.072Z,99741.38
2022-09-18T03:04:59.872Z,99746.00
2022-09-18T03:07:27.519Z,99748.75
2022-09-18T03:09:59.165Z,99747.69
2022-09-18T03:12:26.901Z,99747.69
2022-09-18T03:14:55.188Z,99751.47
2022-09-18T03:17:22.910Z,99750.59
2022-09-18T03:19:50.597Z,99762.38
2022-09-18T03:22:18.281Z,99754.19
2022-09-18T03:24:45.937Z,99757.75
2022-09-18T03:27:13.706Z,99760.50
2022-09-18T03:29:41.441Z,99762.38
2022-09-18T03:32:09.215Z,99768.66
2022-09-18T03:34:36.876Z,99767.84
2022-09-18T03:37:04.647Z,99771.59
2022-09-18T03:39:32.507Z,99763.41
2022-09-18T03:42:00.758Z,99766.97
2022-09-18T03:44:28.441Z,99770.56
2022-09-18T03:46:56.211Z,99778.53
2022-09-18T03:49:25.534Z,99771.59
2022-09-18T03:51:53.372Z,99776.03
2022-09-18T03:54:21.027Z,99778.75
2022-09-18T03:56:49.222Z,99783.56
2022-09-18T03:59:16.948Z,99777.03
2022-09-18T04:01:44.697Z,99781.47
2022-09-18T04:04:13.277Z,99789.66
2022-09-18T04:06:41.062Z,99787.97
2022-09-18T04:09:08.759Z,99786.94
2022-09-18T04:11:36.472Z,99784.19
2022-09-18T04:14:04.218Z,99792.16
2022-09-18T04:16:32.127Z,99784.19
2022-09-18T04:18:59.901Z,99785.03
2022-09-18T04:21:27.627Z,99784.81
2022-09-18T04:23:55.425Z,99789.25
2022-09-18T04:26:26.324Z,99793.00
2022-09-18T04:28:54.046Z,99787.53
2022-09-18T04:31:22.101Z,99795.53
2022-09-18T04:33:50.467Z,99797.84
2022-09-18T04:36:18.205Z,99788.81
2022-09-18T04:38:45.906Z,99795.94
2022-09-18T04:41:13.592Z,99786.09
2022-09-18T04:43:41.456Z,99798.06
2022-09-18T04:46:09.714Z,99795.34
2022-09-18T04:48:37.459Z,99796.38
2022-09-18T04:51:05.164Z,99801.19
2022-09-18T04:53:35.472Z,99799.50
2022-09-18T04:56:03.149Z,99795.34
2022-09-18T04:58:31.100Z,99802.25
2022-09-18T05:00:59.096Z,99799.09
2022-09-18T05:03:26.869Z,99807.91
2022-09-18T05:05:55.172Z,99813.19
2022-09-18T05:08:22.957Z,99811.91
2022-09-18T05:10:51.235Z,99815.69
2022-09-18T05:13:19.003Z,99818.03
2022-09-18T05:15:46.821Z,99809.03
2022-09-18T05:18:14.587Z,99815.97
2022-09-18T05:20:42.288Z,99814.78
2022-09-18T05:23:09.977Z,99818.81
2022-09-18T05:25:37.672Z,99814.16
2022-09-18T05:28:05.384Z,99821.41
2022-09-18T05:30:33.077Z,99826.72
2022-09-18T05:33:00.748Z,99818.41
2022-09-18T05:35:28.490Z,99820.56
2022-09-18T05:37:56.224Z,99815.16
2022-09-18T05:40:24.819Z,99813.88
2022-09-18T05:42:53.876Z,99811.59
2022-09-18T05:45:21.617Z,99822.81
2022-09-18T05:47:49.327Z,99828.09
2022-09-18T05:50:17.484Z,99820.06
2022-09-18T05:52:45.233Z,99827.16
2022-09-18T05:55:12.915Z,99827.06
2022-09-18T05:57:40.699Z,99825.84
2022-09-18T06:00:08.825Z,99823.50
2022-09-18T06:02:36.559Z,99826.94
2022-09-18T06:05:04.364Z,99826.03
2022-09-18T06:07:32.330Z,99833.53
2022-09-18T06:10:00.023Z,99831.75
2022-09-18T06:12:27.813Z,99838.50
2022-09-18T06:14:55.480Z,99835.66
2022-09-18T06:17:23.364Z,99836.75
2022-09-18T06:19:51.138Z,99845.28
2022-09-18T06:22:19.495Z,99835.13
2022-09-18T06:24:47.135Z,99840.97
2022-09-18T06:27:14.860Z,99840.06
2022-09-18T06:29:43.435Z,99836.72
2022-09-18T06:32:11.108Z,99840.31
2022-09-18T06:34:38.986Z,99844.72
2022-09-18T06:37:06.853Z,99847.28
2022-09-18T06:39:35.705Z,99844.97
2022-09-18T06:42:03.467Z,99846.16
2022-09-18T06:44:31.255Z,99843.56
2022-09-18T06:46:59.065Z,99849.81
2022-09-18T06:49:27.021Z,99848.66
2022-09-18T06:51:55.761Z,99846.56
2022-09-18T06:54:23.448Z,99841.78
2022-09-18T06:56:51.137Z,99851.56
2022-09-18T06:59:19.033Z,99843.63
2022-09-18T07:01:46.821Z,99848.94
2022-09-18T07:04:15.601Z,99841.22
2022-09-18T07:06:43.299Z,99845.91
2022-09-18T07:09:11.041Z,99836.28
2022-09-18T07:11:39.696Z,99846.22
2022-09-18T07:14:08.348Z,99848.78
2022-09-18T07:16:36.110Z,99854.47
2022-09-18T07:19:03.896Z,99853.69
2022-09-18T07:21:31.751Z,99851.63
2022-09-18T07:23:59.432Z,99844.06
2022-09-18T07:26:27.267Z,99840.94
2022-09-18T07:28:54.974Z,99847.06
2022-09-18T07:31:22.764Z,99854.88
2022-09-18T07:33:50.590Z,99853.63
2022-09-18T07:36:18.475Z,99850.91
2022-09-18T07:38:46.162Z,99845.88
2022-09-18T07:41:14.074Z,99849.91
2022-09-18T07:43:41.813Z,99849.50
2022-09-18T07:46:09.574Z,99845.09
2022-09-18T07:48:37.526Z,99855.63
2022-09-18T07:51:05.212Z,99854.16
2022-09-18T07:53:33.609Z,99855.41
2022-09-18T07:56:01.355Z,99854.78
2022-09-18T07:58:29.035Z,99843.63
2022-09-18T08:00:57.267Z,99842.38
2022-09-18T08:03:25.569Z,99849.97
2022-09-18T08:05:53.274Z,99848.50
2022-09-18T08:08:20.977Z,99852.69
2022-09-18T08:10:48.670Z,99834.63
2022-09-18T08:13:16.711Z,99851.25
2022-09-18T08:15:44.400Z,99846.22
2022-09-18T08:18:12.121Z,99850.63
2022-09-18T08:20:39.966Z,99838.84
2022-09-18T08:23:08.827Z,99843.06
2022-09-18T08:25:37.410Z,99847.91
2022-09-18T08:28:05.101Z,99838.47
2022-09-18T08:30:32.811Z,99846.03
2022-09-18T08:33:00.523Z,99846.03
2022-09-18T08:35:28.638Z,99845.19
2022-09-18T08:37:56.793Z,99839.72
2022-09-18T08:40:25.491Z,99848.13
2022-09-18T08:42:53.299Z,99847.28
2022-09-18T08:45:20.992Z,99851.91
2022-09-18T08:47:48.811Z,99843.28
2022-09-18T08:50:16.571Z,99849.59
2022-09-18T08:52:44.376Z,99840.78
2022-09-18T08:55:12.201Z,99833.00
2022-09-18T08:57:41.908Z,99844.97
2022-09-18T09:00:10.484Z,99826.06
2022-09-18T09:02:38.748Z,99842.69
2022-09-18T09:05:06.554Z,99841.84
2022-09-18T09:07:34.224Z,99834.91
2022-09-18T09:10:04.046Z,99841.41
2022-09-18T09:12:31.797Z,99825.00
2022-09-18T09:14:59.546Z,99840.56
2022-09-18T09:17:27.278Z,99825.25
2022-09-18T09:19:55.596Z,99826.28
2022-09-18T09:22:23.288Z,99828.41
2022-09-18T09:24:51.121Z,99827.53
2022-09-18T09:27:18.865Z,99827.13
2022-09-18T09:29:46.857Z,99829.03
2022-09-18T09:32:14.861Z,99818.31
2022-09-18T09:34:44.601Z,99817.47
2022-09-18T09:37:12.544Z,99817.63
2022-09-18T09:39:40.721Z,99818.69
2022-09-18T09:42:08.743Z,99817.03
2022-09-18T09:44:37.264Z,99811.75
2022-09-18T09:47:05.200Z,99806.28
2022-09-18T09:49:33.049Z,99804.00
2022-09-18T09:52:02.091Z,99791.38
2022-09-18T09:54:31.369Z,99791.38
2022-09-18T09:56:59.070Z,99789.69
2022-09-18T09:59:27.069Z,99790.53
2022-09-18T10:01:54.921Z,99792.44
2022-09-18T10:04:23.066Z,99788.88
2022-09-18T10:06:50.750Z,99798.97
2022-09-18T10:09:18.493Z,99806.91
2022-09-18T10:11:46.223Z,99791.19
2022-09-18T10:14:13.912Z,99796.84
2022-09-18T10:16:41.614Z,99796.63
2022-09-18T10:19:09.562Z,99802.53
2022-09-18T10:21:37.294Z,99805.25
2022-09-18T10:24:04.996Z,99797.25
2022-09-18T10:26:32.925Z,99803.78
2022-09-18T10:29:00.750Z,99802.72
2022-09-18T10:31:28.671Z,99798.97
2022-09-18T10:33:56.781Z,99792.22
2022-09-18T10:36:24.505Z,99796.03
2022-09-18T10:38:52.450Z,99789.72
2022-09-18T10:41:20.316Z,99791.59
2022-09-18T10:43:48.212Z,99797.47
2022-09-18T10:46:15.979Z,99802.75
2022-09-18T10:48:43.954Z,99787.38
2022-09-18T10:51:11.709Z,99796.44
2022-09-18T10:53:39.646Z,99793.91
2022-09-18T10:56:07.438Z,99775.63
2022-09-18T10:58:35.271Z,99783.81
2022-09-18T11:01:03.085Z,99775.44
2022-09-18T11:03:31.060Z,99785.53
2022-09-18T11:05:58.847Z,99787.38
2022-09-18T11:08:26.935Z,99786.56
2022-09-18T11:10:55.733Z,99790.97
2022-09-18T11:13:23.377Z,99783.00
2022-09-18T11:15:52.683Z,99765.78
2022-09-18T11:18:20.510Z,99781.94
2022-09-18T11:20:48.275Z,99786.34
2022-09-18T11:23:16.171Z,99788.84
2022-09-18T11:25:46.157Z,99794.31
2022-09-18T11:28:13.904Z,99785.53
2022-09-18T11:30:41.626Z,99770.81
2022-09-18T11:33:09.357Z,99757.78
2022-09-18T11:35:37.945Z,99763.25
2022-09-18T11:38:07.891Z,99754.00
2022-09-18T11:40:35.811Z,99743.09
2022-09-18T11:43:05.816Z,99749.38
2022-09-18T11:45:33.638Z,99754.84
2022-09-18T11:48:01.338Z,99750.63
2022-09-18T11:50:29.064Z,99749.59
2022-09-18T11:52:56.713Z,99743.50
2022-09-18T11:55:24.720Z,99741.59
2022-09-18T11:57:52.463Z,99739.50
2022-09-18T12:00:21.192Z,99731.16
2022-09-18T12:02:49.019Z,99737.19
2022-09-18T12:05:16.864Z,99732.63
2022-09-18T12:07:43.188Z,99720.38
2022-09-18T12:10:10.907Z,99721.06
2022-09-18T12:12:38.572Z,99735.16
2022-09-18T12:15:06.283Z,99739.47
2022-09-18T12:17:34.147Z,99731.59
2022-09-18T12:20:02.069Z,99737.69
2022-09-18T12:22:29.792Z,99737.97
2022-09-18T12:24:57.652Z,99729.81
2022-09-18T12:27:27.755Z,99740.25
2022-09-18T12:29:55.759Z,99733.78
2022-09-18T12:32:23.429Z,99758.84
2022-09-18T12:34:51.275Z,99743.91
2022-09-18T12:37:19.040Z,99741.56
2022-09-18T12:39:47.631Z,99736.28
2022-09-18T12:42:15.321Z,99740.72
2022-09-18T12:44:43.108Z,99744.63
2022-09-18T12:47:10.860Z,99754.66
2022-09-18T12:49:38.522Z,99757.13
2022-09-18T12:52:06.204Z,99758.94
2022-09-18T12:54:34.135Z,99770.88
2022-09-18T12:57:01.813Z,99776.91
2022-09-18T12:59:29.475Z,99786.75
2022-09-18T13:01:57.192Z,99791.47
2022-09-18T13:04:24.852Z,99799.97
2022-09-18T13:06:52.958Z,99784.66
2022-09-18T13:09:25.178Z,99774.81
2022-09-18T13:11:53.588Z,99777.38
2022-09-18T13:14:21.388Z,99769.75
2022-09-18T13:16:50.573Z,99771.41
2022-09-18T13:19:21.042Z,99768.38
2022-09-18T13:21:48.786Z,99774.94
2022-09-18T13:24:16.479Z,99756.09
2022-09-18T13:26:45.438Z,99758.22
2022-09-18T13:29:13.335Z,99755.88
2022-09-18T13:31:41.052Z,99755.06
2022-09-18T13:34:08.873Z,99747.09
2022-09-18T13:36:36.683Z,99743.09
2022-09-18T13:39:04.451Z,99735.13
2022-09-18T13:41:32.367Z,99732.38
2022-09-18T13:44:00.079Z,99713.94
2022-09-18T13:46:27.920Z,99711.47
2022-09-18T13:48:56.885Z,99716.22
2022-09-18T13:51:26.711Z,99716.47
2022-09-18T13:53:56.413Z,99707.28
2022-09-18T13:56:24.109Z,99711.19
2022-09-18T13:58:52.292Z,99708.38
2022-09-18T14:01:20.233Z,99713.22
2022-09-18T14:03:49.376Z,99716.47
2022-09-18T14:06:17.136Z,99718.66
2022-09-18T14:08:44.867Z,99719.66
2022-09-18T14:11:16.230Z,99717.94
2022-09-18T14:13:44.607Z,99715.56
2022-09-18T14:16:12.393Z,99714.56
2022-09-18T14:18:40.394Z,99705.97
2022-09-18T14:21:08.051Z,99701.84
2022-09-18T14:23:35.815Z,99700.69
2022-09-18T14:26:03.500Z,99702.44
2022-09-18T14:28:31.183Z,99695.72
2022-09-18T14:30:59.008Z,99693.09
2022-09-18T14:33:26.701Z,99678.66
2022-09-18T14:35:54.578Z,99683.03
2022-09-18T14:38:22.264Z,99694.97
2022-09-18T14:40:49.920Z,99693.41
2022-09-18T14:43:17.734Z,99701.53
2022-09-18T14:45:45.644Z,99697.28
2022-09-18T14:48:15.617Z,99693.66
2022-09-18T14:50:43.621Z,99689.56
2022-09-18T14:53:11.366Z,99691.94
2022-09-18T14:55:39.043Z,99695.53
2022-09-18T14:58:06.746Z,99681.72
2022-09-18T15:00:34.485Z,99683.31
2022-09-18T15:03:02.176Z,99684.13
2022-09-18T15:05:29.851Z,99673.13
2022-09-18T15:07:58.706Z,99682.75
2022-09-18T15:10:26.977Z,99699.09
2022-09-18T15:12:54.822Z,99685.66
2022-09-18T15:15:23.047Z,99689.97
2022-09-18T15:17:50.752Z,99691.59
2022-09-18T15:20:18.477Z,99685.75
2022-09-18T15:22:46.312Z,99686.47
2022-09-18T15:25:14.009Z,99688.78
2022-09-18T15:27:41.749Z,99685.16
2022-09-18T15:30:09.742Z,99680.66
2022-09-18T15:32:38.546Z,99692.53
2022-09-18T15:35:06.472Z,99683.44
2022-09-18T15:37:37.940Z,99692.97
2022-09-18T15:40:05.706Z,99697.72
2022-09-18T15:42:33.551Z,99696.84
2022-09-18T15:45:01.383Z,99691.22
2022-09-18T15:47:29.205Z,99705.66
2022-09-18T15:49:56.900Z,99702.97
2022-09-18T15:52:24.571Z,99702.41
2022-09-18T15:54:52.259Z,99699.53
2022-09-18T15:57:20.052Z,99707.78
2022-09-18T15:59:48.252Z,99701.56
2022-09-18T16:02:16.013Z,99703.53
2022-09-18T16:04:43.826Z,99707.16
2022-09-18T16:07:12.088Z,99701.75
2022-09-18T16:09:40.285Z,99699.94
2022-09-18T16:12:08.046Z,99692.22
2022-09-18T16:14:36.054Z,99689.53
2022-09-18T16:17:04.144Z,99687.88
2022-09-18T16:19:31.895Z,99701.84
2022-09-18T16:21:59.579Z,99707.16
2022-09-18T16:24:28.570Z,99705.06
2022-09-18T16:26:56.243Z,99706.63
2022-09-18T16:29:24.118Z,99709.63
2022-09-18T16:31:51.830Z,99705.91
2022-09-18T16:34:19.507Z,99709.47
2022-09-18T16:36:47.180Z,99710.53
2022-09-18T16:39:14.948Z,99715.00
2022-09-18T16:41:42.702Z,99712.91
2022-09-18T16:44:11.630Z,99709.56
2022-09-18T16:46:39.424Z,99705.34
2022-09-18T16:49:07.177Z,99706.63
2022-09-18T16:51:35.334Z,99707.91
2022-09-18T16:54:02.999Z,99702.06
2022-09-18T16:56:30.733Z,99693.22
2022-09-18T16:58:58.427Z,99682.72
2022-09-18T17:01:26.343Z,99683.97
2022-09-18T17:03:54.156Z,99677.88
2022-09-18T17:06:21.823Z,99674.53
2022-09-18T17:08:49.746Z,99673.91
2022-09-18T17:11:18.284Z,99678.59
2022-09-18T17:13:46.223Z,99684.50
2022-09-18T17:16:26.107Z,99685.75
2022-09-18T17:19:02.018Z,99684.50
2022-09-18T17:21:29.986Z,99686.16
2022-09-18T17:23:58.045Z,99686.63
2022-09-18T17:26:28.797Z,99687.88
2022-09-18T17:28:56.534Z,99694.41
2022-09-18T17:31:24.534Z,99693.78
2022-09-18T17:33:52.287Z,99692.31
2022-09-18T17:36:20.266Z,99700.97
2022-09-18T17:38:48.191Z,99695.69
2022-09-18T17:41:15.931Z,99698.03
2022-09-18T17:43:43.835Z,99704.78
2022-09-18T17:46:11.694Z,99691.31
2022-09-18T17:48:39.446Z,99699.31
2022-09-18T17:51:12.047Z,99703.88
2022-09-18T17:53:39.913Z,99704.66
2022-09-18T17:56:07.718Z,99701.03
2022-09-18T17:58:38.803Z,99711.91
2022-09-18T18:01:06.729Z,99711.84
2022-09-18T18:03:34.521Z,99717.03
2022-09-18T18:06:03.026Z,99715.94
2022-09-18T18:08:30.759Z,99711.50
2022-09-18T18:10:58.512Z,99710.25
2022-09-18T18:13:26.727Z,99713.22
2022-09-18T18:15:54.520Z,99712.81
2022-09-18T18:18:22.472Z,99714.50
2022-09-18T18:20:50.511Z,99701.06
2022-09-18T18:23:18.264Z,99699.41
2022-09-18T18:25:47.199Z,99706.16
2022-09-18T18:28:14.939Z,99709.56
2022-09-18T18:30:46.104Z,99707.91
2022-09-18T18:33:13.959Z,99706.91
2022-09-18T18:35:41.864Z,99719.31
2022-09-18T18:38:09.666Z,99719.09
2022-09-18T18:40:39.020Z,99715.97
2022-09-18T18:43:07.496Z,99716.63
2022-09-18T18:45:37.668Z,99704.22
2022-09-18T18:48:09.263Z,99704.66
2022-09-18T18:50:37.677Z,99713.31
2022-09-18T18:53:05.563Z,99714.78
2022-09-18T18:55:33.620Z,99717.13
2022-09-18T18:58:01.436Z,99725.75
2022-09-18T19:00:29.650Z,99726.38
2022-09-18T19:02:57.416Z,99716.97
2022-09-18T19:05:30.602Z,99711.06
2022-09-18T19:07:58.814Z,99712.56
2022-09-18T19:10:27.341Z,99711.94
2022-09-18T19:12:57.226Z,99716.78
2022-09-18T19:15:24.948Z,99714.47
2022-09-18T19:17:53.014Z,99704.81
2022-09-18T19:20:21.129Z,99713.00
2022-09-18T19:22:53.562Z,99708.00
2022-09-18T19:25:21.287Z,99714.72
2022-09-18T19:27:49.143Z,99711.16
2022-09-18T19:30:17.756Z,99706.94
2022-09-18T19:32:45.529Z,99706.09
2022-09-18T19:35:13.243Z,99710.94
2022-09-18T19:37:42.074Z,99698.56
2022-09-18T19:40:13.941Z,99700.66
2022-09-18T19:42:41.651Z,99697.09
2022-09-18T19:45:09.351Z,99695.63
2022-09-18T19:47:37.062Z,99693.06
2022-09-18T19:50:05.424Z,99692.44
2022-09-18T19:52:33.133Z,99700.63
2022-09-18T19:55:00.911Z,99697.25
2022-09-18T19:57:30.172Z,99695.59
2022-09-18T19:59:59.483Z,99695.59
2022-09-18T20:02:27.262Z,99702.31
2022-09-18T20:04:55.134Z,99696.88
2022-09-18T20:07:22.819Z,99697.28
2022-09-18T20:09:51.090Z,99698.34
2022-09-18T20:12:18.785Z,99689.31
2022-09-18T20:14:46.600Z,99691.19
2022-09-18T20:17:14.368Z,99693.31
2022-09-18T20:19:42.311Z,99687.00
2022-09-18T20:22:10.097Z,99688.06
2022-09-18T20:24:37.926Z,99679.06
2022-09-18T20:27:05.645Z,99678.41
2022-09-18T20:29:33.703Z,99680.50
2022-09-18T20:32:02.790Z,99669.59
2022-09-18T20:34:30.512Z,99679.69
2022-09-18T20:36:59.092Z,99673.38
2022-09-18T20:39:27.080Z,99682.59
2022-09-18T20:41:57.296Z,99671.69
2022-09-18T20:44:25.272Z,99674.41
2022-09-18T20:46:56.797Z,99676.31
2022-09-18T20:49:24.916Z,99679.25
2022-09-18T20:51:52.639Z,99674.84
2022-09-18T20:54:23.403Z,99671.28
2022-09-18T20:56:51.106Z,99678.63
2022-09-18T20:59:18.796Z,99679.69
2022-09-18T21:01:47.190Z,99682.41
2022-09-18T21:04:17.296Z,99672.09
2022-09-18T21:06:45.355Z,99670.25
2022-09-18T21:09:13.046Z,99672.09
2022-09-18T21:11:42.198Z,99672.09
2022-09-18T21:14:10.122Z,99672.09
2022-09-18T21:16:40.463Z,99672.97
2022-09-18T21:19:08.262Z,99667.53
2022-09-18T21:21:36.168Z,99671.09
2022-09-18T21:24:04.258Z,99670.25
2022-09-18T21:26:33.051Z,99666.66
2022-09-18T21:29:00.831Z,99667.72
2022-09-18T21:31:28.637Z,99684.94
2022-09-18T21:33:57.279Z,99676.75
2022-09-18T21:36:24.953Z,99668.78
2022-09-18T21:38:52.629Z,99672.34
2022-09-18T21:41:20.310Z,99674.25
2022-09-18T21:43:50.922Z,99669.81
2022-09-18T21:46:19.273Z,99664.59
2022-09-18T21:48:47.460Z,99655.53
2022-09-18T21:51:15.129Z,99650.06
2022-09-18T21:53:42.952Z,99645.47
2022-09-18T21:56:10.889Z,99646.50
2022-09-18T21:58:40.670Z,99650.31
2022-09-18T22:01:08.803Z,99658.50
2022-09-18T22:03:37.131Z,99655.75
2022-09-18T22:06:04.852Z,99649.47
2022-09-18T22:08:32.531Z,99658.69
2022-09-18T22:11:00.254Z,99645.91
2022-09-18T22:13:28.305Z,99649.47
2022-09-18T22:15:56.943Z,99646.94
2022-09-18T22:18:24.757Z,99643.38
2022-09-18T22:20:52.884Z,99638.97
2022-09-18T22:23:20.589Z,99638.13
2022-09-18T22:25:48.340Z,99631.00
2022-09-18T22:28:16.357Z,99637.28
2022-09-18T22:30:44.222Z,99632.06
2022-09-18T22:33:12.028Z,99647.56
2022-09-18T22:35:39.699Z,99646.75
2022-09-18T22:38:07.470Z,99641.09
2022-09-18T22:40:35.238Z,99648.63
2022-09-18T22:43:02.964Z,99641.50
2022-09-18T22:45:30.786Z,99641.50
2022-09-18T22:47:58.458Z,99635.19
2022-09-18T22:50:26.267Z,99637.91
2022-09-18T22:52:54.072Z,99637.91
2022-09-18T22:55:21.791Z,99631.63
2022-09-18T22:57:49.486Z,99635.19
2022-09-18T23:00:17.168Z,99633.72
2022-09-18T23:02:44.979Z,99633.72
2022-09-18T23:05:12.901Z,99629.13
2022-09-18T23:07:40.672Z,99637.31
2022-09-18T23:10:08.361Z,99635.63
2022-09-18T23:12:36.049Z,99639.41
2022-09-18T23:15:03.764Z,99648.03
2022-09-18T23:17:31.461Z,99637.94
2022-09-18T23:19:59.523Z,99647.38
2022-09-18T23:22:27.228Z,99646.56
2022-09-18T23:24:54.971Z,99645.69
2022-09-18T23:27:22.639Z,99644.03
2022-09-18T23:29:50.641Z,99644.03
2022-09-18T23:32:18.474Z,99635.00
2022-09-18T23:34:46.509Z,99642.34
2022-09-18T23:37:14.227Z,99642.34
2022-09-18T23:39:42.109Z,99648.00
2022-09-18T23:42:10.946Z,99640.66
2022-09-18T23:44:38.759Z,99637.09
2022-09-18T23:47:06.729Z,99647.19
2022-09-18T23:49:34.466Z,99648.00
2022-09-18T23:52:02.606Z,99642.75
2022-09-18T23:54:30.379Z,99637.28
2022-09-18T23:56:58.084Z,99649.28
2022-09-18T23:59:25.895Z,99648.22
